PWSweather.com
Personal Weather Stations
Station Observations
NYERIN
South Erin, Erin, NY 14838-9545

South ErinErin, NY 14838-9545

Lat: 42.150605, Lon: -76.654038

Elevation: 1663

Station Type: Davis VP Pro II

http://southerin-ny.org/wx.php

Latest ConditionsUpdated 9:02:01 AM EDT Monday, Aug 31, 2015
Currently Today's Max Today's Min Today's Average
Temperature 69.8°F21.0°C 69.8°F21.0°C 63.7°F17.6°C 65.9°F18.8°C
Dew Point 69.8°F21.0°C 69.8°F21.0°C 63.7°F17.6°C 65.9°F18.8°C
Winds 2.4 mph W3.9 kmh W 2.4 mph W3.9 kmh W - 0.2 mph 0.3 kmh
Wind Gusts 7.0 mph11.3 kmh 10.0 mph16.1 kmh - -
Humidity 100% 100% 99% 100%
Pressure 30.01 in1016.3 mb 30.01 in1016.3 mb 29.99 in1015.6 mb -
Precipitation - 0.01 in0.3 mm - -
Hour Temp Dew Point Humidity Winds Wind Gusts Pressure Precip Precip Rate Daily Precip Total
09:02 AM 69.8°F21.0°C 69.8°F21.0°C 100% 2.4 mph W3.9 kmh W 7.0 mph11.3 kmh 30.01 in1016.3 mb - 0.00 in0.0 mm 0.01 in0.3 mm
08:52 AM 68.8°F20.4°C 68.8°F20.4°C 100% 0.3 mph W0.5 kmh W 2.0 mph3.2 kmh 30.01 in1016.3 mb - 0.00 in0.0 mm 0.01 in0.3 mm
08:42 AM 68.6°F20.3°C 68.6°F20.3°C 100% 1.9 mph W3.1 kmh W 10.0 mph16.1 kmh 30.01 in1016.3 mb - 0.00 in0.0 mm 0.01 in0.3 mm
08:32 AM 67.6°F19.8°C 67.6°F19.8°C 100% 0.6 mph SW1.0 kmh SW 4.0 mph6.4 kmh 30.01 in1016.3 mb - 0.00 in0.0 mm 0.01 in0.3 mm
08:22 AM 66.4°F19.1°C 66.4°F19.1°C 100% 0.2 mph SW0.3 kmh SW -- 30.01 in1016.3 mb - 0.00 in0.0 mm 0.01 in0.3 mm
08:12 AM 66.0°F18.9°C 66.0°F18.9°C 100% 0.3 mph SW0.5 kmh SW 2.0 mph3.2 kmh 30.01 in1016.3 mb - 0.00 in0.0 mm 0.01 in0.3 mm
08:02 AM 66.0°F18.9°C 66.0°F18.9°C 100% Calm Calm -- 30.01 in1016.3 mb - 0.00 in0.0 mm 0.01 in0.3 mm
07:52 AM 65.8°F18.8°C 65.8°F18.8°C 100% Calm Calm -- 30.01 in1016.3 mb - 0.00 in0.0 mm 0.01 in0.3 mm
07:42 AM 65.6°F18.7°C 65.6°F18.7°C 100% 0.1 mph SW0.2 kmh SW 2.0 mph3.2 kmh 30.01 in1016.3 mb - 0.00 in0.0 mm 0.01 in0.3 mm
07:32 AM 65.2°F18.4°C 65.2°F18.4°C 100% 0.4 mph SW0.6 kmh SW 2.0 mph3.2 kmh 30.01 in1016.3 mb - 0.00 in0.0 mm 0.01 in0.3 mm
07:22 AM 64.5°F18.1°C 64.5°F18.1°C 100% Calm Calm -- 30.01 in1016.3 mb - 0.00 in0.0 mm 0.01 in0.3 mm
05:02 AM 64.0°F17.8°C 64.0°F17.8°C 100% 0.2 mph SW0.3 kmh SW 1.0 mph1.6 kmh 29.99 in1015.6 mb - 0.00 in0.0 mm 0.00 in0.0 mm
04:42 AM 63.7°F17.6°C 63.7°F17.6°C 100% Calm Calm -- 29.99 in1015.6 mb - 0.00 in0.0 mm 0.00 in0.0 mm
03:32 AM 65.3°F18.5°C 65.3°F18.5°C 100% Calm Calm 1.0 mph1.6 kmh 30.00 in1015.9 mb - 0.00 in0.0 mm 0.00 in0.0 mm
03:22 AM 65.3°F18.5°C 65.3°F18.5°C 100% Calm Calm 1.0 mph1.6 kmh 30.00 in1015.9 mb - 0.00 in0.0 mm 0.00 in0.0 mm
03:12 AM 65.0°F18.3°C 65.0°F18.3°C 100% 0.2 mph SW0.3 kmh SW 1.0 mph1.6 kmh 30.00 in1015.9 mb - 0.00 in0.0 mm 0.00 in0.0 mm
02:42 AM 65.2°F18.4°C 65.2°F18.4°C 100% Calm Calm -- 30.00 in1015.9 mb - 0.00 in0.0 mm 0.00 in0.0 mm
02:22 AM 65.5°F18.6°C 65.5°F18.6°C 100% Calm Calm -- 30.00 in1015.9 mb - 0.00 in0.0 mm 0.00 in0.0 mm
02:12 AM 65.3°F18.5°C 65.3°F18.5°C 100% Calm Calm -- 30.00 in1015.9 mb - 0.00 in0.0 mm 0.00 in0.0 mm
02:02 AM 65.5°F18.6°C 65.5°F18.6°C 100% Calm Calm -- 30.00 in1015.9 mb - 0.00 in0.0 mm 0.00 in0.0 mm
01:42 AM 65.5°F18.6°C 65.5°F18.6°C 100% 0.2 mph SW0.3 kmh SW 3.0 mph4.8 kmh 30.01 in1016.3 mb - 0.00 in0.0 mm 0.00 in0.0 mm
01:32 AM 65.6°F18.7°C 65.6°F18.7°C 100% Calm Calm -- 30.01 in1016.3 mb - 0.00 in0.0 mm 0.00 in0.0 mm
01:22 AM 65.6°F18.7°C 65.6°F18.7°C 100% Calm Calm -- 30.01 in1016.3 mb - 0.00 in0.0 mm 0.00 in0.0 mm
01:12 AM 65.6°F18.7°C 65.6°F18.7°C 100% Calm Calm -- 30.01 in1016.3 mb - 0.00 in0.0 mm 0.00 in0.0 mm
01:02 AM 65.6°F18.7°C 65.6°F18.7°C 100% 0.2 mph SW0.3 kmh SW 1.0 mph1.6 kmh 30.01 in1016.3 mb - 0.00 in0.0 mm 0.00 in0.0 mm
12:52 AM 65.6°F18.7°C 65.6°F18.7°C 100% Calm Calm -- 30.01 in1016.3 mb - 0.00 in0.0 mm 0.00 in0.0 mm
12:32 AM 65.6°F18.7°C 65.6°F18.7°C 100% 0.2 mph SW0.3 kmh SW -- 30.01 in1016.3 mb - 0.00 in0.0 mm 0.00 in0.0 mm
12:22 AM 66.0°F18.9°C 65.7°F18.7°C 99% Calm Calm -- 30.01 in1016.3 mb - 0.00 in0.0 mm 0.00 in0.0 mm
12:12 AM 66.1°F18.9°C 65.8°F18.8°C 99% Calm Calm -- 30.01 in1016.3 mb - 0.00 in0.0 mm 0.00 in0.0 mm
12:02 AM 66.4°F19.1°C 66.1°F18.9°C 99% Calm Calm -- 30.01 in1016.3 mb - 0.00 in0.0 mm 0.00 in0.0 mm